Time;durP1;ratioP1;P1;durP2;ratioP2;P2;SDS_P1;SDS_P2;PMS_P1;PMS_P2;Temp;Humidity;BMP_temperature;BMP_pressure;BME280_temperature;BME280_humidity;BME280_pressure;Samples;Min_cycle;Max_cycle;Signal;HPM_P1;HPM_P2
2022/05/23 00:01:31;;;;;;;;;;;;;;;9.53;100.00;98462.17;1750242;82;20083;-66
2022/05/23 00:03:57;;;;;;;;;;;;;;;9.55;100.00;98456.59;1750194;82;20419;-66
2022/05/23 00:06:24;;;;;;;;;;;;;;;9.55;100.00;98455.79;1750099;82;20426;-67
2022/05/23 00:08:50;;;;;;;;;;;;;;;9.57;100.00;98457.62;1750038;82;20118;-67
2022/05/23 00:11:19;;;;;;;;;;;;;;;9.57;100.00;98457.62;1749972;82;20345;-67
2022/05/23 00:13:47;;;;;;;;;;;;;;;9.57;100.00;98463.10;1749953;82;20087;-67
2022/05/23 00:16:20;;;;;;;;;;;;;;;9.58;100.00;98464.70;1749976;82;20244;-67
2022/05/23 00:18:47;;;;;;;;;;;;;;;9.59;100.00;98467.11;1750053;82;20083;-67
2022/05/23 00:21:14;;;;;;;;;;;;;;;9.59;100.00;98467.11;1749940;82;20087;-67
2022/05/23 00:23:41;;;;;;;;;;;;;;;9.58;100.00;98472.36;1750118;82;20430;-67
2022/05/23 00:26:11;;;;;;;;;;;;;;;9.56;100.00;98474.63;1749884;82;20238;-67
2022/05/23 00:28:39;;;;;;;;;;;;;;;9.57;100.00;98472.69;1750031;82;21122;-67
2022/05/23 00:31:06;;;;;;;;;;;;;;;9.59;100.00;98477.27;1750247;82;20083;-67
2022/05/23 00:36:19;;;;;;;;;;;;;;;9.60;100.00;98472.83;1749931;82;20091;-67
2022/05/23 00:38:46;;;;;;;;;;;;;;;9.62;100.00;98479.34;1750045;82;20091;-67
2022/05/23 00:44:33;;;;;;;;;;;;;;;9.62;100.00;98493.04;1749971;80;20114;-68
2022/05/23 00:47:18;;;;;;;;;;;;;;;9.64;100.00;98495.45;1745902;82;20122;-67
2022/05/23 00:49:45;;;;;;;;;;;;;;;9.65;100.00;98492.94;1722504;83;20123;-66
2022/05/23 00:52:15;;;;;;;;;;;;;;;9.66;100.00;98493.98;1727741;82;20191;-66
2022/05/23 00:54:44;;;;;;;;;;;;;;;9.66;100.00;98488.50;1694247;83;20672;-66
2022/05/23 00:57:13;;;;;;;;;;;;;;;9.66;100.00;98491.23;1719588;83;20128;-66
2022/05/23 00:59:40;;;;;;;;;;;;;;;9.65;100.00;98493.74;1719543;83;20152;-66
2022/05/23 01:02:06;;;;;;;;;;;;;;;9.64;100.00;98496.25;1719526;83;20140;-66
2022/05/23 01:04:38;;;;;;;;;;;;;;;9.61;100.00;98496.92;1719441;83;20124;-66
2022/05/23 01:07:05;;;;;;;;;;;;;;;9.61;100.00;98496.92;1719725;83;21231;-66
2022/05/23 01:09:33;;;;;;;;;;;;;;;9.58;100.00;98494.84;1719535;82;20120;-66
2022/05/23 01:12:00;;;;;;;;;;;;;;;9.57;100.00;98496.78;1719546;83;20123;-66
2022/05/23 01:14:45;;;;;;;;;;;;;;;9.58;100.00;98498.95;1719497;83;20487;-66
2022/05/23 01:17:11;;;;;;;;;;;;;;;9.57;100.00;98498.72;1719855;83;20124;-65
2022/05/23 01:19:38;;;;;;;;;;;;;;;9.55;100.00;98500.42;1719529;82;21239;-66
2022/05/23 01:22:30;;;;;;;;;;;;;;;9.55;100.00;98501.00;1719533;83;20133;-66
2022/05/23 01:25:20;;;;;;;;;;;;;;;9.53;100.00;98497.22;1719720;82;20467;-66
2022/05/23 01:27:49;;;;;;;;;;;;;;;9.51;100.00;98500.05;1719479;83;37936;-65
2022/05/23 01:30:16;;;;;;;;;;;;;;;9.52;100.00;98509.31;1719502;83;20144;-66
2022/05/23 01:32:44;;;;;;;;;;;;;;;9.52;100.00;98513.42;1718369;83;21166;-66
2022/05/23 01:35:11;;;;;;;;;;;;;;;9.54;100.00;98519.94;1719491;83;20104;-66
2022/05/23 01:37:38;;;;;;;;;;;;;;;9.55;100.00;98516.06;1719559;83;20104;-66
2022/05/23 01:40:10;;;;;;;;;;;;;;;9.53;100.00;98516.39;1719351;83;20124;-66
2022/05/23 01:42:39;;;;;;;;;;;;;;;9.51;100.00;98515.13;1718449;83;20124;-67
2022/05/23 01:45:07;;;;;;;;;;;;;;;9.51;100.00;98520.03;1719621;83;21135;-66
2022/05/23 01:47:34;;;;;;;;;;;;;;;9.52;100.00;98523.02;1719849;83;20120;-66
2022/05/23 01:50:00;;;;;;;;;;;;;;;9.52;100.00;98518.90;1719469;83;20143;-66
2022/05/23 01:52:41;;;;;;;;;;;;;;;9.52;100.00;98518.90;1719456;83;20431;-66
2022/05/23 01:55:09;;;;;;;;;;;;;;;9.53;100.00;98518.34;1718990;83;20124;-66
2022/05/23 01:57:36;;;;;;;;;;;;;;;9.54;100.00;98520.74;1719673;83;21053;-66
2022/05/23 02:02:49;;;;;;;;;;;;;;;9.56;100.00;98514.36;1719836;83;20467;-65
2022/05/23 02:05:18;;;;;;;;;;;;;;;9.57;100.00;98515.16;1693220;83;20448;-66
2022/05/23 02:07:44;;;;;;;;;;;;;;;9.57;100.00;98517.34;1720070;83;20471;-66
2022/05/23 02:10:11;;;;;;;;;;;;;;;9.56;100.00;98516.30;1722930;83;21129;-66
2022/05/23 02:12:40;;;;;;;;;;;;;;;9.55;100.00;98516.06;1722439;83;20176;-66
2022/05/23 02:15:09;;;;;;;;;;;;;;;9.53;100.00;98519.14;1722919;83;20116;-66
2022/05/23 02:17:44;;;;;;;;;;;;;;;9.53;100.00;98519.14;1720368;83;20144;-66
2022/05/23 02:20:11;;;;;;;;;;;;;;;9.50;100.00;98529.39;1722819;83;20124;-67
2022/05/23 02:22:39;;;;;;;;;;;;;;;9.50;100.00;98528.59;1722931;83;21107;-66
2022/05/23 02:25:24;;;;;;;;;;;;;;;9.50;100.00;98523.11;1723183;83;20132;-66
2022/05/23 02:27:52;;;;;;;;;;;;;;;9.51;100.00;98530.99;1722608;83;20135;-66
2022/05/23 02:30:18;;;;;;;;;;;;;;;9.52;100.00;98538.64;1722893;83;20158;-66
2022/05/23 02:32:45;;;;;;;;;;;;;;;9.53;100.00;98545.73;1722798;83;20112;-66
2022/05/23 02:35:14;;;;;;;;;;;;;;;9.55;100.00;98546.20;1723047;83;21201;-66
2022/05/23 02:37:41;;;;;;;;;;;;;;;9.54;100.00;98549.51;1722767;83;20192;-66
2022/05/23 02:40:11;;;;;;;;;;;;;;;9.54;100.00;98550.08;1722952;83;20474;-66
2022/05/23 02:42:38;;;;;;;;;;;;;;;9.55;100.00;98559.90;1722922;83;20120;-66
2022/05/23 02:45:08;;;;;;;;;;;;;;;9.52;100.00;98560.00;1722933;83;20124;-66
2022/05/23 02:47:37;;;;;;;;;;;;;;;9.53;100.00;98567.08;1722932;83;21190;-66
2022/05/23 02:50:05;;;;;;;;;;;;;;;9.53;100.00;98567.65;1722787;83;20459;-66
2022/05/23 02:52:34;;;;;;;;;;;;;;;9.54;100.00;98567.88;1722652;82;20100;-66
2022/05/23 02:55:04;;;;;;;;;;;;;;;9.55;100.00;98572.23;1722145;83;20155;-66
2022/05/23 02:57:32;;;;;;;;;;;;;;;9.56;100.00;98574.64;1743705;82;20204;-66
2022/05/23 03:00:00;;;;;;;;;;;;;;;9.59;100.00;98570.43;1723273;83;21179;-66
2022/05/23 03:05:12;;;;;;;;;;;;;;;9.67;100.00;98578.36;1748317;82;20091;-66
2022/05/23 03:07:39;;;;;;;;;;;;;;;9.70;100.00;98578.49;1729394;81;20147;-65
2022/05/23 03:10:06;;;;;;;;;;;;;;;9.75;100.00;98581.04;1724878;82;20098;-66
2022/05/23 03:12:34;;;;;;;;;;;;;;;9.85;100.00;98580.61;1715556;82;21162;-66
2022/05/23 03:15:02;;;;;;;;;;;;;;;10.01;100.00;98587.67;1705608;83;20484;-65
2022/05/23 03:17:29;;;;;;;;;;;;;;;10.04;100.00;98581.52;1698316;84;20118;-65
2022/05/23 03:19:55;;;;;;;;;;;;;;;10.03;100.00;98590.08;1697867;84;20086;-65
2022/05/23 03:27:53;;;;;;;;;;;;;;;10.25;100.00;98602.10;1697995;84;20483;-65
2022/05/23 03:30:24;;;;;;;;;;;;;;;10.32;100.00;98591.39;1697381;84;20432;-66
2022/05/23 03:32:54;;;;;;;;;;;;;;;10.35;100.00;98593.46;1722313;83;20119;-65
2022/05/23 03:35:21;;;;;;;;;;;;;;;10.35;100.00;98591.28;1727058;83;20119;-65
2022/05/23 03:37:47;;;;;;;;;;;;;;;10.34;100.00;98595.97;1715584;83;21084;-65
2022/05/23 03:40:15;;;;;;;;;;;;;;;10.41;100.00;98598.14;1697963;84;20110;-65
2022/05/23 03:42:43;;;;;;;;;;;;;;;10.46;100.00;98598.73;1697726;84;20154;-65
2022/05/23 03:45:10;;;;;;;;;;;;;;;10.44;100.00;98596.09;1698015;84;20473;-65
2022/05/23 03:47:38;;;;;;;;;;;;;;;10.39;100.00;98608.68;1697302;84;20126;-67
2022/05/23 03:50:09;;;;;;;;;;;;;;;10.33;100.00;98605.34;1698169;84;22050;-65
2022/05/23 03:52:38;;;;;;;;;;;;;;;10.35;100.00;98609.12;1696947;84;20130;-66
2022/05/23 03:55:05;;;;;;;;;;;;;;;10.38;100.00;98617.48;1701739;83;20071;-66
2022/05/23 03:57:34;;;;;;;;;;;;;;;10.41;100.00;98611.86;1722971;83;20119;-65
2022/05/23 04:00:01;;;;;;;;;;;;;;;10.36;100.00;98614.27;1722528;83;20095;-66
2022/05/23 04:02:30;;;;;;;;;;;;;;;10.28;100.00;98612.41;1722588;83;21041;-66
2022/05/23 04:04:56;;;;;;;;;;;;;;;10.19;100.00;98611.64;1722574;83;20071;-65
2022/05/23 04:07:38;;;;;;;;;;;;;;;10.14;100.00;98614.59;1723150;83;20095;-65
2022/05/23 04:10:16;;;;;;;;;;;;;;;10.12;100.00;98608.63;1727878;82;20431;-65
2022/05/23 04:12:44;;;;;;;;;;;;;;;10.13;100.00;98610.23;1728979;82;20124;-65
2022/05/23 04:15:12;;;;;;;;;;;;;;;10.16;100.00;98608.20;1728970;83;21138;-65
2022/05/23 04:17:39;;;;;;;;;;;;;;;10.19;100.00;98615.22;1729009;83;20113;-65
2022/05/23 04:20:08;;;;;;;;;;;;;;;10.24;100.00;98619.70;1728899;82;20124;-65
2022/05/23 04:22:37;;;;;;;;;;;;;;;10.22;100.00;98621.41;1728461;83;20184;-65
2022/05/23 04:25:06;;;;;;;;;;;;;;;10.22;100.00;98618.66;1729296;81;20097;-65
2022/05/23 04:27:33;;;;;;;;;;;;;;;10.29;100.00;98620.06;1729039;83;21143;-65
2022/05/23 04:30:00;;;;;;;;;;;;;;;10.34;100.00;98620.66;1728863;83;20124;-66
2022/05/23 04:35:20;;;;;;;;;;;;;;;10.40;100.00;98626.74;1718706;83;20084;-65
2022/05/23 04:37:49;;;;;;;;;;;;;;;10.36;100.00;98631.30;1699433;84;20117;-66
2022/05/23 04:40:18;;;;;;;;;;;;;;;10.34;100.00;98625.34;1699648;84;21969;-65
2022/05/23 04:42:44;;;;;;;;;;;;;;;10.35;100.00;98626.38;1704455;83;20450;-65
2022/05/23 04:45:12;;;;;;;;;;;;;;;10.38;100.00;98633.14;1708629;83;20126;-66
2022/05/23 04:50:26;;;;;;;;;;;;;;;10.46;100.00;98633.59;1749144;82;20114;-66
2022/05/23 04:52:56;;;;;;;;;;;;;;;10.51;100.00;98633.39;1747976;82;21088;-65
2022/05/23 04:55:22;;;;;;;;;;;;;;;10.54;100.00;98634.89;1705460;83;20466;-66
2022/05/23 04:57:49;;;;;;;;;;;;;;;10.60;100.00;98635.48;1712194;83;20075;-67
2022/05/23 05:00:18;;;;;;;;;;;;;;;10.70;100.00;98631.52;1731470;83;20110;-65
2022/05/23 05:02:47;;;;;;;;;;;;;;;10.78;100.00;98627.88;1733960;82;20071;-65
2022/05/23 05:05:15;;;;;;;;;;;;;;;10.85;100.00;98630.88;1733889;82;21767;-67
2022/05/23 05:07:45;;;;;;;;;;;;;;;10.92;100.00;98635.24;1713772;83;20121;-66
2022/05/23 05:10:11;;;;;;;;;;;;;;;10.97;100.00;98629.53;1741808;82;20087;-65
2022/05/23 05:12:38;;;;;;;;;;;;;;;11.06;100.00;98638.45;1747922;81;20118;-66
2022/05/23 05:15:08;;;;;;;;;;;;;;;11.17;100.00;98634.69;1718973;82;20085;-65
2022/05/23 05:17:35;;;;;;;;;;;;;;;11.29;100.00;98635.27;1727541;82;21248;-67
2022/05/23 05:20:02;;;;;;;;;;;;;;;11.43;100.00;98637.92;1746971;82;20119;-66
2022/05/23 05:22:48;;;;;;;;;;;;;;;11.58;100.00;98639.16;1731065;82;20089;-66
2022/05/23 05:25:28;;;;;;;;;;;;;;;11.72;100.00;98643.73;1717952;83;20098;-65
2022/05/23 05:27:58;;;;;;;;;;;;;;;11.75;100.00;98643.04;1717963;83;20156;-65
2022/05/23 05:30:25;;;;;;;;;;;;;;;11.80;100.00;98651.66;1718035;83;21146;-65
2022/05/23 05:33:00;;;;;;;;;;;;;;;11.86;100.00;98644.20;1718200;83;20082;-65
2022/05/23 05:35:33;;;;;;;;;;;;;;;11.93;100.00;98648.33;1717573;83;20129;-66
2022/05/23 05:38:13;;;;;;;;;;;;;;;12.02;100.00;98647.62;1730968;82;20122;-65
2022/05/23 05:40:40;;;;;;;;;;;;;;;12.08;100.00;98649.79;1746768;82;20098;-65
2022/05/23 05:43:10;;;;;;;;;;;;;;;12.17;100.00;98651.80;1746635;81;21732;-65
2022/05/23 05:45:43;;;;;;;;;;;;;;;12.28;100.00;98650.74;1746224;81;20115;-66
2022/05/23 05:48:14;;;;;;;;;;;;;;;12.39;100.00;98649.68;1744185;82;20442;-66
2022/05/23 05:50:41;;;;;;;;;;;;;;;12.49;99.86;98644.48;1746244;81;20123;-65
2022/05/23 05:53:12;;;;;;;;;;;;;;;12.62;97.97;98651.32;1745972;82;20438;-65
2022/05/23 05:55:39;;;;;;;;;;;;;;;12.70;96.83;98657.25;1746171;81;21204;-66
2022/05/23 05:58:06;;;;;;;;;;;;;;;12.77;95.03;98654.09;1746121;82;20095;-65
2022/05/23 06:00:33;;;;;;;;;;;;;;;12.84;94.38;98652.91;1750141;81;20437;-65
2022/05/23 06:03:00;;;;;;;;;;;;;;;12.93;93.87;98659.64;1746330;81;20083;-66
2022/05/23 06:05:28;;;;;;;;;;;;;;;13.01;93.35;98661.44;1746280;81;20075;-65
2022/05/23 06:13:38;;;;;;;;;;;;;;;13.21;88.90;98661.80;1731201;82;20127;-66
2022/05/23 06:16:06;;;;;;;;;;;;;;;13.28;89.33;98669.45;1732326;82;20115;-65
2022/05/23 06:18:38;;;;;;;;;;;;;;;13.40;89.54;98667.16;1731165;82;20445;-66
2022/05/23 06:21:09;;;;;;;;;;;;;;;13.53;85.52;98670.05;1732627;82;21864;-66
2022/05/23 06:23:37;;;;;;;;;;;;;;;13.53;84.69;98673.61;1732163;82;20170;-67
2022/05/23 06:26:15;;;;;;;;;;;;;;;13.60;83.76;98665.30;1696749;83;20094;-65
2022/05/23 06:29:00;;;;;;;;;;;;;;;13.68;83.49;98665.69;1732998;83;20122;-65
2022/05/23 06:31:27;;;;;;;;;;;;;;;13.79;81.66;98666.17;1732332;83;20095;-65
2022/05/23 06:33:55;;;;;;;;;;;;;;;13.86;81.39;98666.92;1732365;83;21778;-66
2022/05/23 06:36:24;;;;;;;;;;;;;;;13.96;80.25;98665.53;1732269;82;20142;-66
2022/05/23 06:38:50;;;;;;;;;;;;;;;14.01;80.17;98666.64;1732280;83;20143;-65
2022/05/23 06:41:37;;;;;;;;;;;;;;;14.07;78.03;98663.83;1730282;82;20082;-66
2022/05/23 06:44:08;;;;;;;;;;;;;;;14.08;77.35;98662.66;1732586;82;20082;-66
2022/05/23 06:46:51;;;;;;;;;;;;;;;14.08;77.11;98664.04;1628958;88;21144;-67
2022/05/23 06:49:36;;;;;;;;;;;;;;;14.09;74.71;98663.68;1704441;83;20139;-66
2022/05/23 06:52:05;;;;;;;;;;;;;;;14.12;75.29;98664.92;1733770;82;20111;-65
2022/05/23 06:54:42;;;;;;;;;;;;;;;14.25;77.69;98670.54;1731823;82;20136;-65
2022/05/23 06:57:11;;;;;;;;;;;;;;;14.41;76.50;98664.97;1699690;84;20117;-68
2022/05/23 06:59:38;;;;;;;;;;;;;;;14.54;74.63;98665.05;1699740;84;21115;-66
2022/05/23 07:02:07;;;;;;;;;;;;;;;14.66;74.96;98668.25;1699727;83;20113;-67
2022/05/23 07:12:57;;;;;;;;;;;;;;;15.35;71.80;98671.32;1708744;82;21188;-73
2022/05/23 07:15:35;;;;;;;;;;;;;;;15.52;71.46;98668.66;1704555;83;20181;-70
2022/05/23 07:17:52;;;;;;;;;;;;;;;15.55;67.82;98671.27;1713318;82;20447;-70
2022/05/23 07:20:23;;;;;;;;;;;;;;;15.41;67.91;98667.67;1700569;83;20397;-78
2022/05/23 07:23:06;;;;;;;;;;;;;;;15.36;66.83;98666.01;1656301;83;20116;-67
2022/05/23 07:25:35;;;;;;;;;;;;;;;15.40;65.86;98664.69;1699428;84;21157;-76
2022/05/23 07:28:03;;;;;;;;;;;;;;;15.47;67.59;98662.84;1695667;83;20145;-75
2022/05/23 07:30:32;;;;;;;;;;;;;;;15.59;63.77;98666.03;1682484;84;20156;-78
2022/05/23 07:33:06;;;;;;;;;;;;;;;15.74;65.30;98665.06;1699314;84;20152;-73
2022/05/23 07:36:03;;;;;;;;;;;;;;;16.03;64.93;98669.66;1700564;82;20097;-74
2022/05/23 07:38:37;;;;;;;;;;;;;;;16.26;61.59;98662.64;1711601;82;21165;-73
2022/05/23 07:41:07;;;;;;;;;;;;;;;16.17;59.99;98669.25;1732618;82;20506;-73
2022/05/23 07:43:37;;;;;;;;;;;;;;;16.08;62.13;98663.22;1706761;82;20142;-70
2022/05/23 07:46:13;;;;;;;;;;;;;;;16.14;60.29;98667.85;1688623;83;20085;-70
2022/05/23 07:48:51;;;;;;;;;;;;;;;16.16;60.87;98668.27;1719322;82;20452;-71
2022/05/23 07:51:20;;;;;;;;;;;;;;;16.32;64.40;98663.91;1692171;83;20176;-68
2022/05/23 08:02:38;;;;;;;;;;;;;;;16.79;59.18;98661.95;1702625;84;20109;-67
2022/05/23 08:05:09;;;;;;;;;;;;;;;17.02;54.62;98657.06;1699324;84;22118;-67
2022/05/23 08:07:41;;;;;;;;;;;;;;;16.86;54.03;98667.58;1699340;84;20447;-67
2022/05/23 08:10:10;;;;;;;;;;;;;;;16.86;55.72;98666.19;1699602;84;20095;-67
2022/05/23 08:12:43;;;;;;;;;;;;;;;17.01;56.30;98662.99;1699599;84;20118;-67
2022/05/23 08:15:11;;;;;;;;;;;;;;;17.19;54.95;98652.88;1699780;84;20090;-67
2022/05/23 08:17:44;;;;;;;;;;;;;;;17.39;53.34;98663.95;1699338;84;20095;-67
2022/05/23 08:20:16;;;;;;;;;;;;;;;17.77;54.59;98655.78;1696098;83;20087;-68
2022/05/23 08:22:45;;;;;;;;;;;;;;;18.29;50.71;98657.09;1680768;83;20097;-67
2022/05/23 08:25:15;;;;;;;;;;;;;;;18.59;50.53;98654.84;1689718;85;20127;-67
2022/05/23 08:27:47;;;;;;;;;;;;;;;18.69;50.15;98654.72;1683299;84;20153;-67
2022/05/23 08:30:16;;;;;;;;;;;;;;;18.76;50.16;98656.13;1690944;83;21776;-67
2022/05/23 08:32:45;;;;;;;;;;;;;;;18.90;48.25;98655.39;1691140;85;20108;-66
2022/05/23 08:35:13;;;;;;;;;;;;;;;19.01;49.68;98655.62;1689657;84;20426;-67
2022/05/23 08:37:41;;;;;;;;;;;;;;;19.13;49.20;98648.27;1674828;84;20495;-67
2022/05/23 08:40:12;;;;;;;;;;;;;;;19.21;49.13;98655.23;1683891;83;20106;-66
2022/05/23 08:42:56;;;;;;;;;;;;;;;19.09;47.02;98653.03;1673865;83;21686;-67
2022/05/23 08:45:34;;;;;;;;;;;;;;;19.20;48.55;98657.83;1688888;85;20163;-67
2022/05/23 08:48:27;;;;;;;;;;;;;;;19.53;49.36;98659.49;1691576;85;20192;-67
2022/05/23 08:51:18;;;;;;;;;;;;;;;19.74;46.41;98660.86;1691578;85;20890;-66
2022/05/23 08:54:14;;;;;;;;;;;;;;;19.65;44.07;98661.26;1691241;85;20490;-67
2022/05/23 08:56:54;;;;;;;;;;;;;;;19.43;42.87;98659.65;1616858;85;20099;-66
2022/05/23 08:59:31;;;;;;;;;;;;;;;19.07;44.79;98650.44;1691526;84;20087;-67
2022/05/23 09:02:15;;;;;;;;;;;;;;;18.80;46.40;98662.50;1656791;85;20115;-66
2022/05/23 09:04:57;;;;;;;;;;;;;;;18.73;45.87;98666.64;1649185;86;20127;-65
2022/05/23 09:07:38;;;;;;;;;;;;;;;18.55;46.87;98671.30;1644203;87;20106;-66
2022/05/23 09:10:10;;;;;;;;;;;;;;;18.40;48.64;98676.02;1650189;87;20146;-67
2022/05/23 09:12:43;;;;;;;;;;;;;;;18.31;48.52;98665.84;1649014;87;20090;-66
2022/05/23 09:15:09;;;;;;;;;;;;;;;18.19;48.75;98675.30;1649303;87;20158;-66
2022/05/23 09:17:41;;;;;;;;;;;;;;;18.02;48.29;98675.37;1649423;87;20137;-66
2022/05/23 09:20:18;;;;;;;;;;;;;;;17.74;47.50;98677.38;1651003;86;20445;-67
2022/05/23 09:22:54;;;;;;;;;;;;;;;17.50;46.96;98678.72;1659431;85;21286;-67
2022/05/23 09:25:27;;;;;;;;;;;;;;;17.35;46.41;98680.35;1665133;85;20159;-68
2022/05/23 09:28:26;;;;;;;;;;;;;;;17.19;46.37;98679.23;1666414;85;20400;-67
2022/05/23 09:30:58;;;;;;;;;;;;;;;17.08;46.46;98679.70;1671704;85;20199;-66
2022/05/23 09:33:26;;;;;;;;;;;;;;;17.35;48.07;98672.83;1676660;85;20120;-70
2022/05/23 09:35:57;;;;;;;;;;;;;;;17.87;47.41;98677.08;1675116;85;20115;-67
2022/05/23 09:38:31;;;;;;;;;;;;;;;18.38;46.83;98670.84;1661609;85;20104;-69
2022/05/23 09:40:59;;;;;;;;;;;;;;;18.74;44.12;98672.41;1674315;85;20088;-76
2022/05/23 09:49:20;;;;;;;;;;;;;;;18.30;46.04;98680.91;1676049;85;21920;-73
2022/05/23 09:51:54;;;;;;;;;;;;;;;18.24;45.74;98681.08;1673428;85;20161;-70
2022/05/23 09:54:35;;;;;;;;;;;;;;;18.03;44.86;98681.73;1652152;85;20486;-75
2022/05/23 09:57:10;;;;;;;;;;;;;;;17.86;44.08;98679.05;1657306;85;20457;-72
2022/05/23 09:59:36;;;;;;;;;;;;;;;17.67;43.99;98684.25;1649895;85;20175;-78
2022/05/23 10:05:39;;;;;;;;;;;;;;;17.76;45.98;98690.28;1677390;85;20110;-68
2022/05/23 10:08:19;;;;;;;;;;;;;;;17.87;43.96;98688.18;1658886;86;20110;-68
2022/05/23 10:10:53;;;;;;;;;;;;;;;17.79;41.31;98683.16;1636768;86;20444;-67
2022/05/23 10:13:38;;;;;;;;;;;;;;;17.69;43.69;98673.56;1673860;84;20144;-66
2022/05/23 10:16:26;;;;;;;;;;;;;;;17.71;42.96;98664.86;1684667;85;21106;-66
2022/05/23 10:19:03;;;;;;;;;;;;;;;17.66;42.93;98668.78;1681131;83;20439;-66
2022/05/23 10:21:39;;;;;;;;;;;;;;;17.64;43.76;98678.05;1686612;85;20104;-67
2022/05/23 10:24:13;;;;;;;;;;;;;;;18.04;44.57;98680.55;1687238;85;20088;-66
2022/05/23 10:26:54;;;;;;;;;;;;;;;18.63;42.05;98677.13;1682943;84;20122;-66
2022/05/23 10:29:24;;;;;;;;;;;;;;;19.10;39.48;98678.86;1670156;85;21133;-66
2022/05/23 10:32:01;;;;;;;;;;;;;;;19.34;39.60;98682.89;1659201;85;20133;-67
2022/05/23 10:34:35;;;;;;;;;;;;;;;19.46;38.66;98674.96;1677375;85;20096;-66
2022/05/23 10:37:05;;;;;;;;;;;;;;;19.54;37.64;98675.00;1662863;85;20137;-67
2022/05/23 10:42:29;;;;;;;;;;;;;;;19.86;36.71;98677.17;1658975;86;21184;-68
2022/05/23 10:45:19;;;;;;;;;;;;;;;19.80;38.40;98680.16;1620657;86;20098;-68
2022/05/23 10:48:03;;;;;;;;;;;;;;;19.78;37.86;98670.02;1658238;86;20146;-67
2022/05/23 10:50:39;;;;;;;;;;;;;;;19.64;39.13;98672.20;1658771;86;20480;-66
2022/05/23 10:53:34;;;;;;;;;;;;;;;19.40;38.52;98675.75;1659209;86;20149;-65
2022/05/23 10:56:21;;;;;;;;;;;;;;;18.97;40.77;98681.23;1659143;86;21188;-70
2022/05/23 10:59:16;;;;;;;;;;;;;;;18.58;41.43;98684.41;1659014;86;20094;-65
2022/05/23 11:02:21;;;;;;;;;;;;;;;18.13;40.75;98686.56;1655126;86;20115;-65
2022/05/23 11:04:51;;;;;;;;;;;;;;;17.63;42.50;98694.50;1651772;85;20724;-65
2022/05/23 11:07:56;;;;;;;;;;;;;;;17.28;43.99;98690.02;1664438;85;20152;-69
2022/05/23 11:10:36;;;;;;;;;;;;;;;17.02;44.43;98700.05;1676440;85;21178;-80
2022/05/23 11:13:26;;;;;;;;;;;;;;;16.74;43.97;98701.91;1655287;85;20439;-70
2022/05/23 11:16:07;;;;;;;;;;;;;;;16.50;44.71;98706.51;1676382;85;20104;-69
2022/05/23 11:19:04;;;;;;;;;;;;;;;16.31;44.75;98701.09;1676147;85;20408;-69
2022/05/23 11:21:46;;;;;;;;;;;;;;;16.21;45.91;98697.00;1671167;85;20148;-68
2022/05/23 11:24:20;;;;;;;;;;;;;;;16.18;45.40;98694.39;1657377;85;20465;-68
2022/05/23 11:26:54;;;;;;;;;;;;;;;16.22;46.58;98699.98;1672752;85;20152;-68
2022/05/23 11:35:10;;;;;;;;;;;;;;;16.34;45.58;98698.37;1676107;85;20152;-70
2022/05/23 11:37:49;;;;;;;;;;;;;;;16.44;45.62;98696.34;1675024;85;21328;-69
2022/05/23 11:40:30;;;;;;;;;;;;;;;16.54;44.83;98698.25;1675997;85;20136;-69
2022/05/23 11:43:14;;;;;;;;;;;;;;;16.65;44.49;98694.47;1676214;85;20156;-68
2022/05/23 11:48:58;;;;;;;;;;;;;;;17.78;42.34;98680.98;1631683;87;20169;-76
2022/05/23 11:51:37;;;;;;;;;;;;;;;18.60;37.76;98673.14;1649153;86;21798;-71
2022/05/23 11:54:11;;;;;;;;;;;;;;;19.02;37.58;98674.50;1648955;87;20520;-68
2022/05/23 11:57:02;;;;;;;;;;;;;;;19.14;38.87;98674.90;1632144;87;20210;-70
2022/05/23 11:59:33;;;;;;;;;;;;;;;19.12;37.14;98686.22;1648779;85;20180;-68
2022/05/23 12:02:13;;;;;;;;;;;;;;;18.95;37.31;98681.42;1665481;85;20451;-74
2022/05/23 12:04:58;;;;;;;;;;;;;;;18.70;39.55;98694.63;1676182;85;21116;-66
2022/05/23 12:07:33;;;;;;;;;;;;;;;18.41;38.95;98690.91;1677931;85;20475;-69
2022/05/23 12:10:25;;;;;;;;;;;;;;;18.03;40.09;98697.80;1684330;83;20131;-67
2022/05/23 12:13:29;;;;;;;;;;;;;;;17.73;41.08;98699.96;1675368;84;20115;-69
2022/05/23 12:15:58;;;;;;;;;;;;;;;17.45;42.10;98706.81;1691385;85;20147;-69
2022/05/23 12:18:28;;;;;;;;;;;;;;;17.24;44.01;98713.55;1691284;85;21830;-67
2022/05/23 12:20:59;;;;;;;;;;;;;;;17.09;44.60;98715.97;1691228;85;20462;-69
2022/05/23 12:23:49;;;;;;;;;;;;;;;16.95;45.44;98710.25;1684408;83;20118;-68
2022/05/23 12:26:24;;;;;;;;;;;;;;;16.81;46.10;98717.80;1665253;85;20164;-67
2022/05/23 12:28:54;;;;;;;;;;;;;;;16.64;46.75;98724.73;1667670;83;20499;-67
2022/05/23 12:31:27;;;;;;;;;;;;;;;16.50;46.89;98720.36;1634775;88;21792;-67
2022/05/23 12:34:05;;;;;;;;;;;;;;;16.43;48.15;98719.67;1650456;85;20158;-67
2022/05/23 12:36:38;;;;;;;;;;;;;;;16.40;48.84;98719.63;1617293;87;20118;-67
2022/05/23 12:39:47;;;;;;;;;;;;;;;16.41;48.51;98718.45;1645818;87;20111;-67
2022/05/23 12:42:07;;;;;;;;;;;;;;;16.47;49.29;98714.98;1646224;87;20434;-67
2022/05/23 12:45:13;;;;;;;;;;;;;;;16.53;49.12;98721.58;1646178;87;21189;-66
2022/05/23 12:48:03;;;;;;;;;;;;;;;16.59;48.96;98720.08;1645686;87;20136;-66
2022/05/23 12:50:43;;;;;;;;;;;;;;;16.62;49.22;98712.41;1646281;87;20422;-67
2022/05/23 12:53:30;;;;;;;;;;;;;;;16.65;49.74;98715.84;1646373;87;20102;-68
2022/05/23 12:56:31;;;;;;;;;;;;;;;16.67;49.50;98715.67;1646451;87;20488;-66
2022/05/23 12:59:20;;;;;;;;;;;;;;;16.67;48.15;98714.29;1646185;87;21173;-65
2022/05/23 13:01:48;;;;;;;;;;;;;;;16.60;48.50;98719.70;1646097;87;20189;-65
2022/05/23 13:04:17;;;;;;;;;;;;;;;16.51;46.14;98715.83;1663325;86;20134;-68
2022/05/23 13:06:53;;;;;;;;;;;;;;;16.44;46.27;98716.31;1623962;87;20107;-65
2022/05/23 13:09:33;;;;;;;;;;;;;;;16.39;46.60;98711.10;1646392;87;20147;-65
2022/05/23 13:12:05;;;;;;;;;;;;;;;16.32;46.88;98717.34;1645457;87;21187;-65
2022/05/23 13:14:55;;;;;;;;;;;;;;;16.24;45.69;98723.14;1646055;87;20099;-68
2022/05/23 13:17:42;;;;;;;;;;;;;;;16.16;45.99;98720.30;1646279;87;20179;-68
2022/05/23 13:23:04;;;;;;;;;;;;;;;16.08;46.28;98725.52;1646095;87;20187;-73
2022/05/23 13:25:33;;;;;;;;;;;;;;;16.08;45.40;98717.79;1646176;87;21210;-73
2022/05/23 13:28:01;;;;;;;;;;;;;;;16.04;44.05;98720.50;1646199;87;20145;-72
2022/05/23 13:30:31;;;;;;;;;;;;;;;16.04;44.83;98723.27;1646268;87;20171;-68
2022/05/23 13:33:11;;;;;;;;;;;;;;;16.06;45.31;98721.52;1654634;85;20176;-69
2022/05/23 13:35:38;;;;;;;;;;;;;;;16.13;46.62;98720.24;1673533;85;20203;-74
2022/05/23 13:38:18;;;;;;;;;;;;;;;16.27;45.25;98721.81;1673440;85;21269;-73
2022/05/23 13:40:48;;;;;;;;;;;;;;;16.37;45.07;98722.55;1673450;85;20165;-72
2022/05/23 13:43:18;;;;;;;;;;;;;;;16.53;45.91;98722.97;1673406;85;20140;-73
2022/05/23 13:45:45;;;;;;;;;;;;;;;16.66;45.13;98723.78;1673474;85;20211;-73
2022/05/23 13:48:16;;;;;;;;;;;;;;;16.73;43.49;98720.30;1673541;85;20622;-73
2022/05/23 13:50:49;;;;;;;;;;;;;;;16.80;43.27;98722.55;1661694;85;21149;-81
2022/05/23 13:53:18;;;;;;;;;;;;;;;16.90;44.27;98720.28;1692272;83;20164;-73
2022/05/23 13:55:49;;;;;;;;;;;;;;;17.13;45.13;98720.96;1691448;85;20175;-74
2022/05/23 13:58:19;;;;;;;;;;;;;;;17.62;43.49;98716.48;1691202;85;20450;-72
2022/05/23 14:00:52;;;;;;;;;;;;;;;18.25;43.34;98714.62;1690306;84;20497;-71
2022/05/23 14:03:22;;;;;;;;;;;;;;;18.87;40.70;98708.41;1691152;85;21135;-70
2022/05/23 14:05:50;;;;;;;;;;;;;;;19.38;39.03;98716.50;1683013;85;20448;-67
2022/05/23 14:08:33;;;;;;;;;;;;;;;19.66;39.19;98712.17;1671712;84;20502;-70
2022/05/23 14:10:55;;;;;;;;;;;;;;;19.89;37.64;98714.57;1663714;86;20176;-71
2022/05/23 14:13:21;;;;;;;;;;;;;;;19.94;38.51;98712.19;1664040;86;20508;-71
2022/05/23 14:15:54;;;;;;;;;;;;;;;20.17;38.19;98709.59;1664131;86;21221;-68
2022/05/23 14:18:21;;;;;;;;;;;;;;;20.55;38.15;98712.91;1663978;86;20117;-69
2022/05/23 14:20:50;;;;;;;;;;;;;;;20.95;36.49;98715.73;1664103;86;20501;-69
2022/05/23 14:23:21;;;;;;;;;;;;;;;21.18;37.56;98718.63;1641753;86;20156;-69
2022/05/23 14:25:57;;;;;;;;;;;;;;;21.55;36.43;98709.63;1664165;86;20137;-69